Time;durP1;ratioP1;P1;durP2;ratioP2;P2;SDS_P1;SDS_P2;PMS_P1;PMS_P2;Temp;Humidity;BMP_temperature;BMP_pressure;BME280_temperature;BME280_humidity;BME280_pressure;Samples;Min_cycle;Max_cycle;Signal;HPM_P1;HPM_P2
2020/12/23 00:00:12;;;;;;;12.15;3.30;;;;;;;9.90;85.58;100134.82;126317;1093;23308;-62
2020/12/23 00:03:02;;;;;;;17.23;2.87;;;;;;;9.89;85.74;100146.45;126160;1098;23436;-63
2020/12/23 00:05:32;;;;;;;11.43;2.83;;;;;;;9.87;85.41;100132.97;126161;1099;23371;-63
2020/12/23 00:08:02;;;;;;;8.37;2.07;;;;;;;9.88;85.95;100133.75;126167;1098;23597;-62
2020/12/23 00:10:31;;;;;;;10.20;2.50;;;;;;;9.87;86.00;100137.80;126063;1099;23772;-62
2020/12/23 00:13:00;;;;;;;11.10;2.33;;;;;;;9.86;85.72;100128.66;126204;1098;23476;-63
2020/12/23 00:15:30;;;;;;;14.35;3.37;;;;;;;9.85;85.31;100121.53;126153;1098;23375;-63
2020/12/23 00:17:59;;;;;;;10.00;2.35;;;;;;;9.86;85.63;100127.88;126282;1099;25080;-63
2020/12/23 00:20:28;;;;;;;13.33;3.00;;;;;;;9.84;85.75;100122.79;126085;1098;23375;-63
2020/12/23 00:22:57;;;;;;;9.40;2.57;;;;;;;9.83;85.70;100126.81;126078;1098;23383;-62
2020/12/23 00:25:26;;;;;;;11.03;3.13;;;;;;;9.79;86.10;100132.58;126236;1098;23324;-63
2020/12/23 00:27:56;;;;;;;15.23;3.43;;;;;;;9.76;85.35;100143.92;126076;1098;27652;-62
2020/12/23 00:30:25;;;;;;;11.80;2.95;;;;;;;9.72;85.47;100151.69;126265;1098;28145;-61
2020/12/23 00:32:54;;;;;;;10.00;2.47;;;;;;;9.68;85.12;100137.16;126169;1098;26299;-63
2020/12/23 00:35:24;;;;;;;11.10;3.43;;;;;;;9.66;86.23;100153.59;126120;1098;23383;-62
2020/12/23 00:37:53;;;;;;;12.13;2.60;;;;;;;9.64;85.70;100148.47;126420;1098;23332;-63
2020/12/23 00:40:22;;;;;;;9.80;2.80;;;;;;;9.62;86.05;100150.97;126342;1093;23377;-62
2020/12/23 00:42:52;;;;;;;9.83;2.37;;;;;;;9.62;85.69;100153.00;126106;1098;23530;-63
2020/12/23 00:45:21;;;;;;;8.23;2.50;;;;;;;9.60;85.71;100172.22;126100;1098;23422;-63
2020/12/23 00:47:50;;;;;;;14.95;4.20;;;;;;;9.61;85.33;100173.75;126097;1099;26960;-63
2020/12/23 00:50:19;;;;;;;12.83;4.37;;;;;;;9.60;85.83;100164.61;126008;1098;26862;-64
2020/12/23 00:52:49;;;;;;;13.95;3.85;;;;;;;9.61;86.18;100170.95;126086;1098;23514;-63
2020/12/23 00:55:18;;;;;;;13.43;3.35;;;;;;;9.61;85.56;100168.17;126224;1098;26418;-62
2020/12/23 00:57:47;;;;;;;11.67;3.20;;;;;;;9.60;85.96;100169.43;126181;1099;23366;-63
2020/12/23 01:00:16;;;;;;;10.97;2.83;;;;;;;9.60;85.90;100155.50;126114;1098;23390;-63
2020/12/23 01:02:46;;;;;;;10.10;3.03;;;;;;;9.61;85.90;100160.59;126483;1098;23311;-63
2020/12/23 01:05:16;;;;;;;11.13;2.80;;;;;;;9.61;85.95;100157.02;126180;1098;25039;-63
2020/12/23 01:07:45;;;;;;;12.13;3.00;;;;;;;9.63;85.61;100160.88;126195;1098;23312;-63
2020/12/23 01:10:14;;;;;;;9.90;2.90;;;;;;;9.62;86.43;100155.79;126077;1098;23327;-62
2020/12/23 01:12:43;;;;;;;18.83;3.43;;;;;;;9.64;86.58;100156.84;126145;1098;23366;-62
2020/12/23 01:15:13;;;;;;;15.80;3.33;;;;;;;9.65;85.79;100157.61;126252;1098;26820;-63
2020/12/23 01:17:42;;;;;;;9.83;2.25;;;;;;;9.64;86.15;100145.69;126211;1098;23379;-62
2020/12/23 01:20:12;;;;;;;12.83;3.57;;;;;;;9.65;85.29;100154.83;126175;1098;26338;-63
2020/12/23 01:22:41;;;;;;;13.37;3.17;;;;;;;9.65;85.61;100158.39;126257;1098;23404;-63
2020/12/23 01:25:10;;;;;;;11.13;3.37;;;;;;;9.66;86.00;100167.53;126219;1098;26388;-62
2020/12/23 01:27:39;;;;;;;11.10;2.60;;;;;;;9.65;85.66;100174.34;126291;1098;23426;-62
2020/12/23 01:30:08;;;;;;;8.43;2.10;;;;;;;9.63;85.53;100168.47;126198;1098;23376;-62
2020/12/23 01:32:38;;;;;;;9.60;2.90;;;;;;;9.62;85.36;100170.48;126206;1098;23379;-62
2020/12/23 01:35:07;;;;;;;12.97;3.23;;;;;;;9.63;86.26;100162.89;126116;1098;26417;-63
2020/12/23 01:37:36;;;;;;;14.20;2.77;;;;;;;9.63;85.72;100162.89;126189;1099;23478;-63
2020/12/23 01:40:06;;;;;;;9.67;2.17;;;;;;;9.60;85.65;100164.61;126217;1098;23320;-63
2020/12/23 01:42:35;;;;;;;12.20;2.67;;;;;;;9.58;85.26;100163.56;126207;1098;23327;-63
2020/12/23 01:45:05;;;;;;;11.53;2.70;;;;;;;9.56;86.22;100158.44;126265;1099;27561;-63
2020/12/23 01:47:34;;;;;;;;;;;;;;;9.58;85.92;100152.41;126243;1098;23366;-62
2020/12/23 01:50:04;;;;;;;7.37;2.20;;;;;;;9.56;85.59;100152.86;126323;1099;21497;-62
2020/12/23 01:52:33;;;;;;;11.55;3.05;;;;;;;9.54;85.33;100162.94;126250;1098;23931;-62
2020/12/23 01:55:02;;;;;;;10.67;3.17;;;;;;;9.49;85.96;100158.81;126173;1098;23553;-62
2020/12/23 01:57:31;;;;;;;9.75;2.65;;;;;;;9.48;85.39;100150.91;126311;1099;23321;-62
2020/12/23 02:00:00;;;;;;;10.50;2.40;;;;;;;9.49;85.56;100166.39;126239;1098;28263;-62
2020/12/23 02:02:32;;;;;;;12.20;2.93;;;;;;;9.46;85.26;100179.25;126168;1098;25011;-63
2020/12/23 02:05:03;;;;;;;9.40;2.83;;;;;;;9.43;85.49;100185.78;126386;1098;23300;-61
2020/12/23 02:07:34;;;;;;;11.67;2.50;;;;;;;9.45;85.74;100188.87;126634;1098;23324;-63
2020/12/23 02:10:05;;;;;;;8.13;2.00;;;;;;;9.44;85.56;100189.31;126385;1098;25045;-63
2020/12/23 02:12:35;;;;;;;8.67;2.33;;;;;;;9.43;85.64;100179.43;126302;1098;24507;-62
2020/12/23 02:15:12;;;;;;;9.20;1.90;;;;;;;9.46;85.58;100173.67;126213;1093;23369;-63
2020/12/23 02:17:46;;;;;;;6.20;1.83;;;;;;;9.45;85.01;100188.09;126539;1098;26802;-62
2020/12/23 02:20:17;;;;;;;10.35;2.60;;;;;;;9.43;85.17;100185.78;126217;1093;23781;-63
2020/12/23 02:22:47;;;;;;;11.90;2.90;;;;;;;9.45;85.59;100174.94;126714;1098;23417;-63
2020/12/23 02:25:17;;;;;;;11.63;2.70;;;;;;;9.47;86.35;100180.03;126252;1098;23369;-62
2020/12/23 02:27:46;;;;;;;10.17;2.70;;;;;;;9.44;85.51;100184.52;126318;1098;23318;-62
2020/12/23 02:30:15;;;;;;;9.63;2.80;;;;;;;9.43;85.64;100176.64;126201;1099;23366;-61
2020/12/23 02:32:44;;;;;;;8.33;1.90;;;;;;;9.44;85.86;100176.16;126210;1098;23370;-62
2020/12/23 02:35:14;;;;;;;10.00;2.90;;;;;;;9.46;85.99;100176.46;126257;1098;23323;-61
2020/12/23 02:37:43;;;;;;;8.73;2.22;;;;;;;9.50;85.59;100176.28;126168;1098;27866;-63
2020/12/23 02:40:12;;;;;;;9.33;3.00;;;;;;;9.52;85.25;100177.36;126241;1099;26772;-62
2020/12/23 02:42:41;;;;;;;10.05;2.60;;;;;;;9.55;86.01;100182.00;126261;1099;23366;-62
2020/12/23 02:45:10;;;;;;;10.97;2.73;;;;;;;9.55;86.16;100181.22;126283;1099;23305;-62
2020/12/23 02:47:39;;;;;;;8.97;2.50;;;;;;;9.56;85.47;100177.17;126401;1098;27796;-62
2020/12/23 02:50:09;;;;;;;12.23;2.83;;;;;;;9.55;85.13;100178.43;126201;1093;23366;-63
2020/12/23 02:52:37;;;;;;;11.00;2.60;;;;;;;9.56;85.68;100166.80;126295;1098;27244;-62
2020/12/23 02:55:08;;;;;;;11.33;3.50;;;;;;;9.57;85.48;100167.58;126172;1099;23320;-63
2020/12/23 02:57:38;;;;;;;15.85;4.80;;;;;;;9.59;85.54;100165.86;126291;1098;23392;-62
2020/12/23 03:00:07;;;;;;;16.35;5.55;;;;;;;9.62;85.98;100166.94;126203;1098;23339;-63
2020/12/23 03:02:36;;;;;;;15.67;5.70;;;;;;;9.63;85.38;100166.45;126122;1098;23381;-63
2020/12/23 03:05:05;;;;;;;14.43;5.53;;;;;;;9.68;85.87;100167.83;126302;1098;23372;-63
2020/12/23 03:07:34;;;;;;;15.57;5.63;;;;;;;9.66;85.22;100167.53;126407;1098;23313;-63
2020/12/23 03:10:04;;;;;;;16.17;5.47;;;;;;;9.68;85.32;100167.83;126250;1099;23517;-63
2020/12/23 03:12:34;;;;;;;14.20;5.20;;;;;;;9.66;85.58;100170.32;126317;1098;23483;-63
2020/12/23 03:15:04;;;;;;;14.87;5.47;;;;;;;9.63;85.67;100174.05;126214;1098;23772;-63
2020/12/23 03:17:34;;;;;;;19.57;5.67;;;;;;;9.60;85.82;100175.00;126463;1098;28225;-63
2020/12/23 03:20:03;;;;;;;17.47;5.47;;;;;;;9.60;85.92;100177.80;126219;1098;23507;-62
2020/12/23 03:22:33;;;;;;;18.77;6.80;;;;;;;9.59;86.00;100167.88;126342;1098;25081;-62
2020/12/23 03:25:03;;;;;;;19.50;6.92;;;;;;;9.56;85.31;100166.02;126208;1098;23385;-62
2020/12/23 03:27:32;;;;;;;15.95;4.00;;;;;;;9.45;84.83;100169.36;126152;1098;23421;-62
2020/12/23 03:30:01;;;;;;;12.27;2.97;;;;;;;9.35;85.49;100165.06;126123;1098;23460;-63
2020/12/23 03:32:30;;;;;;;11.40;2.60;;;;;;;9.29;84.52;100149.48;126279;1098;23597;-63
2020/12/23 03:35:00;;;;;;;11.57;2.67;;;;;;;9.24;85.18;100150.89;126220;1099;23316;-62
2020/12/23 03:37:29;;;;;;;10.48;2.50;;;;;;;9.21;84.71;100160.19;126186;1099;26814;-62
2020/12/23 03:39:58;;;;;;;13.40;2.27;;;;;;;9.21;84.65;100170.58;126342;1099;23373;-63
2020/12/23 03:42:27;;;;;;;9.33;2.90;;;;;;;9.20;84.71;100171.80;126235;1098;27836;-63
2020/12/23 03:44:56;;;;;;;15.33;4.40;;;;;;;9.22;85.09;100174.89;126237;1098;23316;-62
2020/12/23 03:47:25;;;;;;;13.07;3.77;;;;;;;9.24;85.28;100183.55;126273;1098;23395;-63
2020/12/23 03:49:54;;;;;;;8.47;2.97;;;;;;;9.24;85.02;100173.19;126207;1098;23504;-63
2020/12/23 03:52:24;;;;;;;10.10;3.67;;;;;;;9.27;84.80;100172.22;126177;1098;23815;-63
2020/12/23 03:54:53;;;;;;;14.33;3.17;;;;;;;9.23;84.14;100177.20;126708;1098;23312;-63
2020/12/23 03:57:22;;;;;;;9.20;3.03;;;;;;;9.21;84.17;100173.36;126313;1098;26813;-63
2020/12/23 03:59:52;;;;;;;12.23;4.50;;;;;;;9.22;84.82;100174.89;126384;1099;24301;-62
2020/12/23 04:02:21;;;;;;;13.10;4.00;;;;;;;9.25;85.29;100176.75;126405;1099;23367;-63
2020/12/23 04:04:50;;;;;;;13.35;4.10;;;;;;;9.28;85.17;100178.58;126260;1098;23309;-63
2020/12/23 04:07:19;;;;;;;11.50;3.73;;;;;;;9.28;84.73;100165.42;126239;1093;26516;-62
2020/12/23 04:09:49;;;;;;;9.60;2.80;;;;;;;9.28;85.09;100170.99;126290;1098;23324;-63
2020/12/23 04:12:19;;;;;;;9.10;2.67;;;;;;;9.27;84.74;100171.47;126187;1098;23329;-62
2020/12/23 04:14:48;;;;;;;10.78;2.85;;;;;;;9.26;84.37;100164.34;126218;1098;23459;-63
2020/12/23 04:17:18;;;;;;;11.45;3.40;;;;;;;9.24;85.03;100177.97;126212;1099;23323;-63
2020/12/23 04:19:47;;;;;;;11.20;3.53;;;;;;;9.25;84.96;100191.42;126206;1098;23507;-63
2020/12/23 04:22:17;;;;;;;13.10;3.60;;;;;;;9.27;85.15;100190.97;126226;1098;23308;-63
2020/12/23 04:24:45;;;;;;;;;;;;;;;9.29;85.22;100182.91;126531;1098;23383;-63
2020/12/23 04:27:15;;;;;;;7.80;2.73;;;;;;;9.26;84.75;100178.27;126591;1098;21528;-62
2020/12/23 04:29:44;;;;;;;9.50;3.10;;;;;;;9.26;84.55;100194.98;126290;1098;23910;-62
2020/12/23 04:32:13;;;;;;;10.67;2.33;;;;;;;9.25;84.31;100191.42;126324;1099;23378;-63
2020/12/23 04:34:43;;;;;;;17.80;4.90;;;;;;;9.22;84.61;100189.59;126540;1098;23371;-63
2020/12/23 04:37:12;;;;;;;13.07;3.70;;;;;;;9.19;84.01;100193.31;126335;1099;23481;-62
2020/12/23 04:39:42;;;;;;;7.10;1.73;;;;;;;9.17;83.99;100193.01;126373;1098;25107;-63
2020/12/23 04:42:11;;;;;;;7.25;1.90;;;;;;;9.12;83.88;100190.88;126389;1098;23378;-63
2020/12/23 04:44:40;;;;;;;8.20;2.10;;;;;;;9.10;84.10;100195.37;126277;1098;23586;-62
2020/12/23 04:47:12;;;;;;;11.90;2.50;;;;;;;9.07;83.99;100194.29;126421;1098;23464;-64
2020/12/23 04:49:47;;;;;;;11.03;2.57;;;;;;;9.04;84.54;100198.03;126313;1098;23401;-64
2020/12/23 04:52:16;;;;;;;10.05;2.10;;;;;;;9.05;84.58;100193.21;126417;1098;23311;-62
2020/12/23 04:54:45;;;;;;;10.93;2.60;;;;;;;9.05;84.55;100187.64;126470;1098;29181;-63
2020/12/23 04:57:19;;;;;;;13.03;3.83;;;;;;;9.03;84.49;100187.34;126394;1098;23517;-63
2020/12/23 04:59:48;;;;;;;8.97;2.73;;;;;;;9.00;85.11;100188.30;126388;1098;28215;-62
2020/12/23 05:02:17;;;;;;;8.43;2.50;;;;;;;8.98;84.65;100190.78;126466;1098;23409;-63
2020/12/23 05:04:46;;;;;;;11.37;2.57;;;;;;;8.96;84.29;100199.58;126150;1098;23504;-63
2020/12/23 05:07:20;;;;;;;11.53;3.70;;;;;;;8.96;84.58;100196.80;126132;1098;23311;-63
2020/12/23 05:09:52;;;;;;;10.20;3.85;;;;;;;8.95;84.64;100198.83;126322;1098;23311;-62
2020/12/23 05:12:22;;;;;;;13.10;4.73;;;;;;;8.98;84.25;100201.91;126310;1099;23549;-63
2020/12/23 05:14:52;;;;;;;9.70;3.35;;;;;;;8.95;84.57;100206.41;126345;1098;26827;-64
2020/12/23 05:17:21;;;;;;;12.73;3.60;;;;;;;8.93;84.56;100194.97;126206;1098;28343;-62
2020/12/23 05:19:53;;;;;;;10.73;3.80;;;;;;;8.90;84.71;100191.09;126148;1098;28292;-62
2020/12/23 05:22:26;;;;;;;16.07;3.90;;;;;;;8.90;85.16;100198.67;126247;1098;23378;-62
2020/12/23 05:24:57;;;;;;;12.10;3.90;;;;;;;8.89;84.18;100194.36;126283;1099;23323;-63
2020/12/23 05:27:26;;;;;;;18.07;6.63;;;;;;;8.87;84.90;100197.62;126292;1098;23372;-62
2020/12/23 05:29:56;;;;;;;20.95;10.85;;;;;;;8.87;84.52;100200.41;126091;1098;27118;-63
2020/12/23 05:32:26;;;;;;;25.35;11.95;;;;;;;8.87;84.30;100194.84;126090;1098;23390;-63
2020/12/23 05:35:00;;;;;;;29.63;13.38;;;;;;;8.86;84.86;100193.28;126183;1098;23316;-63
2020/12/23 05:37:29;;;;;;;30.73;14.70;;;;;;;8.85;84.55;100194.53;126064;1098;23382;-63
2020/12/23 05:39:59;;;;;;;34.80;17.50;;;;;;;8.83;84.29;100197.02;126199;1098;25039;-64
2020/12/23 05:42:30;;;;;;;35.50;18.48;;;;;;;8.83;84.37;100190.67;126092;1098;25039;-61
2020/12/23 05:44:57;;;;;;;;;;;;;;;8.80;84.98;100195.15;126248;1098;23314;-64
2020/12/23 05:47:28;;;;;;;93.40;40.73;;;;;;;8.77;84.38;100196.08;126104;1098;21483;-63
2020/12/23 05:49:58;;;;;;;110.07;56.03;;;;;;;8.75;84.89;100208.94;126196;1098;23301;-64
2020/12/23 05:52:27;;;;;;;121.15;65.05;;;;;;;8.73;85.08;100214.95;126208;1098;23366;-62
2020/12/23 05:54:57;;;;;;;120.80;66.28;;;;;;;8.74;85.06;100205.38;126301;1098;23300;-65
2020/12/23 05:57:26;;;;;;;121.00;66.67;;;;;;;8.71;84.40;100195.16;126275;1098;23311;-63
2020/12/23 05:59:56;;;;;;;128.37;62.70;;;;;;;8.69;84.12;100180.19;126127;1099;23415;-63
2020/12/23 06:02:28;;;;;;;132.57;58.33;;;;;;;8.68;85.20;100182.20;126184;1099;26882;-61
2020/12/23 06:05:02;;;;;;;76.17;32.30;;;;;;;8.66;84.40;100181.12;126100;1098;23666;-63
2020/12/23 06:07:35;;;;;;;62.07;26.90;;;;;;;8.64;84.69;100178.03;126259;1099;23450;-62
2020/12/23 06:10:07;;;;;;;86.23;36.03;;;;;;;8.65;84.46;100193.50;126175;1099;23370;-61
2020/12/23 06:12:47;;;;;;;103.97;39.00;;;;;;;8.64;85.29;100186.37;126121;1098;23311;-61
2020/12/23 06:15:18;;;;;;;83.65;33.33;;;;;;;8.63;85.11;100193.95;126132;1098;28273;-62
2020/12/23 06:17:48;;;;;;;74.87;26.27;;;;;;;8.64;84.89;100189.16;126192;1098;23331;-62
2020/12/23 06:20:18;;;;;;;62.40;21.07;;;;;;;8.65;84.20;100182.38;126169;1098;23343;-62
2020/12/23 06:22:58;;;;;;;62.90;21.00;;;;;;;8.66;84.78;100187.46;126184;1093;23366;-62
2020/12/23 06:25:32;;;;;;;56.23;22.03;;;;;;;8.65;84.32;100187.94;126067;1098;23368;-62
2020/12/23 06:28:01;;;;;;;61.17;29.30;;;;;;;8.64;84.30;100192.72;126040;1099;26819;-63
2020/12/23 06:30:32;;;;;;;77.17;40.58;;;;;;;8.63;84.62;100196.73;126145;1098;26776;-63
2020/12/23 06:33:03;;;;;;;105.27;53.93;;;;;;;8.62;84.12;100200.77;126273;1098;23404;-63
2020/12/23 06:35:32;;;;;;;113.85;62.95;;;;;;;8.61;84.65;100195.64;126257;1098;28276;-62
2020/12/23 06:38:20;;;;;;;101.78;55.60;;;;;;;8.60;84.97;100197.68;126185;1093;23365;-62
2020/12/23 06:41:00;;;;;;;95.35;52.75;;;;;;;8.60;84.71;100197.68;126187;1099;26214;-62
2020/12/23 06:43:57;;;;;;;84.65;45.65;;;;;;;8.61;84.31;100198.43;126294;1098;23371;-64
2020/12/23 06:46:48;;;;;;;70.27;34.87;;;;;;;8.56;84.21;100199.85;126380;1098;23517;-61
2020/12/23 06:49:17;;;;;;;48.20;21.90;;;;;;;8.55;84.34;100211.42;126250;1098;23490;-61
2020/12/23 06:51:46;;;;;;;38.33;16.53;;;;;;;8.55;84.53;100214.20;126277;1098;23379;-62
2020/12/23 06:54:49;;;;;;;27.05;12.70;;;;;;;8.54;85.02;100213.45;126267;1099;23441;-62
2020/12/23 06:57:49;;;;;;;32.47;16.67;;;;;;;8.54;85.27;100204.33;126186;1093;23305;-62
2020/12/23 07:00:41;;;;;;;33.07;17.43;;;;;;;8.55;85.12;100212.20;126300;1098;23405;-62
2020/12/23 07:03:12;;;;;;;30.47;16.83;;;;;;;8.54;84.71;100209.90;126409;1098;26869;-63
2020/12/23 07:05:43;;;;;;;28.47;15.80;;;;;;;8.53;84.64;100211.91;126294;1098;26843;-63
2020/12/23 07:08:16;;;;;;;26.40;14.23;;;;;;;8.54;85.07;100209.90;126370;1093;23419;-63
2020/12/23 07:10:49;;;;;;;28.13;14.73;;;;;;;8.52;85.25;100213.16;126502;1098;23316;-63
2020/12/23 07:13:20;;;;;;;27.70;16.70;;;;;;;8.50;84.34;100210.06;126427;1098;23455;-64
2020/12/23 07:15:57;;;;;;;40.73;22.93;;;;;;;8.52;85.11;100217.94;126371;1098;23371;-63
2020/12/23 07:18:28;;;;;;;50.23;28.13;;;;;;;8.51;84.71;100221.95;126307;1098;23405;-62
2020/12/23 07:21:07;;;;;;;37.23;21.13;;;;;;;8.54;85.10;100221.81;126420;1099;23369;-61
2020/12/23 07:23:37;;;;;;;37.80;20.70;;;;;;;8.56;84.49;100222.11;126309;1098;23362;-62
2020/12/23 07:26:10;;;;;;;36.58;20.20;;;;;;;8.55;84.74;100222.56;126307;1098;23317;-63
2020/12/23 07:28:41;;;;;;;29.80;14.47;;;;;;;8.57;84.50;100220.08;126264;1098;23437;-62
2020/12/23 07:31:13;;;;;;;19.57;7.23;;;;;;;8.57;84.71;100236.78;126114;1098;23475;-62
2020/12/23 07:33:42;;;;;;;18.13;7.43;;;;;;;8.57;85.31;100220.86;126190;1098;23376;-63
2020/12/23 07:36:13;;;;;;;16.03;6.97;;;;;;;8.57;84.83;100222.86;126264;1098;23327;-63
2020/12/23 07:38:43;;;;;;;14.35;4.75;;;;;;;8.51;84.50;100221.95;126246;1098;28333;-63
2020/12/23 07:41:15;;;;;;;14.78;4.55;;;;;;;8.50;84.89;100217.63;126285;1099;23369;-64
2020/12/23 07:43:46;;;;;;;9.70;3.20;;;;;;;8.48;84.63;100223.67;126367;1098;23347;-62
2020/12/23 07:46:22;;;;;;;13.03;3.93;;;;;;;8.47;84.93;100233.24;126214;1098;23769;-63
2020/12/23 07:48:51;;;;;;;12.93;4.07;;;;;;;8.48;84.52;100222.89;126037;1098;23366;-62
2020/12/23 07:51:20;;;;;;;13.23;4.63;;;;;;;8.46;84.66;100231.68;125872;1099;23418;-61
2020/12/23 07:53:50;;;;;;;16.53;4.73;;;;;;;8.45;85.02;100234.94;126161;1098;27856;-62
2020/12/23 07:56:19;;;;;;;14.30;5.30;;;;;;;8.48;85.02;100236.80;126075;1098;23344;-62
2020/12/23 07:58:48;;;;;;;16.27;6.07;;;;;;;8.47;85.27;100233.24;126233;1098;27961;-62
2020/12/23 08:01:18;;;;;;;28.50;11.47;;;;;;;8.47;85.68;100236.02;126222;1099;23770;-63
2020/12/23 08:03:48;;;;;;;25.95;12.82;;;;;;;8.48;85.15;100242.36;126170;1099;28247;-63
2020/12/23 08:06:19;;;;;;;26.50;13.53;;;;;;;8.49;85.29;100236.33;125987;1098;23368;-63
2020/12/23 08:08:50;;;;;;;25.90;13.43;;;;;;;8.50;84.75;100235.11;126065;1098;23461;-62
2020/12/23 08:11:18;;;;;;;;;;;;;;;8.51;85.31;100233.07;126235;1098;23436;-61
2020/12/23 08:13:47;;;;;;;23.57;11.57;;;;;;;8.49;84.97;100238.33;126100;1098;21640;-63
2020/12/23 08:16:17;;;;;;;23.25;9.40;;;;;;;8.48;84.90;100240.36;126038;1098;23387;-62
2020/12/23 08:18:54;;;;;;;25.97;11.93;;;;;;;8.46;85.28;100244.84;126190;1098;23333;-63
2020/12/23 08:21:26;;;;;;;31.37;16.13;;;;;;;8.46;85.67;100237.24;126252;1098;27223;-62
2020/12/23 08:23:56;;;;;;;25.43;12.33;;;;;;;8.49;85.33;100249.46;126147;1098;25196;-65
2020/12/23 08:26:27;;;;;;;18.57;9.38;;;;;;;8.50;85.36;100240.67;126118;1098;23317;-62
2020/12/23 08:28:57;;;;;;;21.55;10.98;;;;;;;8.50;85.50;100235.11;126164;1098;24814;-64
2020/12/23 08:31:31;;;;;;;;;;;;;;;8.50;85.41;100235.11;126097;1098;23312;-63
2020/12/23 08:34:02;;;;;;;36.13;21.63;;;;;;;8.48;85.84;100237.58;126034;1098;25420;-62
2020/12/23 08:36:33;;;;;;;40.40;22.00;;;;;;;8.46;85.52;100240.03;126045;1093;23461;-62
2020/12/23 08:39:03;;;;;;;56.05;28.80;;;;;;;8.44;85.83;100239.72;126104;1098;23311;-62
2020/12/23 08:41:32;;;;;;;41.10;23.77;;;;;;;8.47;85.65;100243.59;126020;1098;23782;-62
2020/12/23 08:44:03;;;;;;;41.33;23.83;;;;;;;8.49;86.02;100249.46;126064;1098;23315;-63
2020/12/23 08:46:38;;;;;;;39.30;21.83;;;;;;;8.53;85.28;100259.20;126159;1098;23329;-63
2020/12/23 08:49:08;;;;;;;46.37;24.37;;;;;;;8.55;85.65;100259.51;126165;1098;26937;-61
2020/12/23 08:51:37;;;;;;;42.60;24.30;;;;;;;8.60;85.43;100258.90;126088;1098;23402;-62
2020/12/23 08:54:14;;;;;;;35.20;17.95;;;;;;;8.61;86.00;100256.87;125801;1098;23311;-63
2020/12/23 08:56:49;;;;;;;34.10;17.60;;;;;;;8.65;85.83;100260.30;125684;1099;23343;-63
2020/12/23 08:59:21;;;;;;;30.07;16.30;;;;;;;8.63;85.52;100259.95;126196;1099;23437;-64
2020/12/23 09:01:51;;;;;;;29.97;13.90;;;;;;;8.62;85.59;100253.64;126081;1098;27958;-63
2020/12/23 09:04:29;;;;;;;34.10;15.93;;;;;;;8.63;86.00;100248.83;127591;1098;25016;-64
2020/12/23 09:07:00;;;;;;;30.17;14.70;;;;;;;8.61;85.42;100240.95;125820;1099;23507;-64
2020/12/23 09:09:29;;;;;;;32.67;15.95;;;;;;;8.63;85.36;100235.69;126121;1099;25129;-64
2020/12/23 09:11:59;;;;;;;36.03;15.70;;;;;;;8.64;85.22;100234.47;126310;1098;23316;-63
2020/12/23 09:14:31;;;;;;;36.15;14.15;;;;;;;8.65;85.01;100233.21;126199;1098;23323;-64
2020/12/23 09:17:03;;;;;;;30.50;14.30;;;;;;;8.66;85.10;100231.98;126379;1098;23379;-64
2020/12/23 09:19:47;;;;;;;27.33;12.77;;;;;;;8.69;85.85;100233.82;126068;1099;23379;-64
2020/12/23 09:22:36;;;;;;;25.07;11.60;;;;;;;8.72;85.34;100232.91;126050;1099;23369;-63
2020/12/23 09:25:20;;;;;;;23.37;10.87;;;;;;;8.73;85.26;100236.47;126155;1098;29330;-63
2020/12/23 09:27:51;;;;;;;26.70;11.67;;;;;;;8.73;85.75;100233.69;126052;1098;23328;-64
2020/12/23 09:30:35;;;;;;;26.17;11.23;;;;;;;8.74;85.43;100232.43;126128;1099;26876;-64
2020/12/23 09:33:06;;;;;;;23.25;10.45;;;;;;;8.72;85.62;100232.91;126147;1098;26776;-64
2020/12/23 09:35:36;;;;;;;23.80;11.63;;;;;;;8.75;85.93;100233.98;126206;1098;23312;-63
2020/12/23 09:38:10;;;;;;;25.75;12.58;;;;;;;8.76;84.92;100239.08;126123;1098;23378;-64
2020/12/23 09:40:42;;;;;;;23.70;11.50;;;;;;;8.78;85.52;100233.81;126232;1098;23501;-64
2020/12/23 09:43:17;;;;;;;19.63;10.33;;;;;;;8.79;85.95;100227.00;126055;1098;23401;-64
2020/12/23 09:45:47;;;;;;;21.93;11.17;;;;;;;8.82;85.65;100228.86;125969;1093;23333;-63
2020/12/23 09:48:19;;;;;;;21.17;10.50;;;;;;;8.80;85.12;100214.64;126011;1098;23517;-64
2020/12/23 09:50:48;;;;;;;25.97;10.33;;;;;;;8.80;85.54;100222.98;126162;1098;23377;-64
2020/12/23 09:53:18;;;;;;;19.30;8.90;;;;;;;8.83;85.07;100212.94;126110;1098;23425;-65
2020/12/23 09:55:48;;;;;;;18.93;9.30;;;;;;;8.87;86.18;100221.89;126207;1098;23377;-63
2020/12/23 09:58:18;;;;;;;22.13;8.47;;;;;;;8.85;85.51;100227.94;126023;1099;23323;-63
2020/12/23 10:00:49;;;;;;;21.00;9.60;;;;;;;8.85;85.83;100227.94;126381;1098;23313;-64
2020/12/23 10:03:18;;;;;;;19.95;9.33;;;;;;;8.84;85.00;100208.90;126359;1098;23366;-64
2020/12/23 10:05:48;;;;;;;23.10;10.23;;;;;;;8.81;85.46;100199.47;126292;1098;23310;-64
2020/12/23 10:08:17;;;;;;;21.35;10.45;;;;;;;8.83;85.55;100218.50;125959;1098;24959;-64
2020/12/23 10:10:47;;;;;;;24.43;12.82;;;;;;;8.86;85.70;100214.77;126340;1098;23313;-64
2020/12/23 10:13:16;;;;;;;33.40;16.27;;;;;;;8.89;85.19;100222.20;126172;1098;23361;-64
2020/12/23 10:15:46;;;;;;;42.53;22.83;;;;;;;8.92;85.62;100235.17;126182;1098;23399;-63
2020/12/23 10:18:15;;;;;;;46.77;25.93;;;;;;;8.93;85.72;100223.59;127266;1093;23450;-64
2020/12/23 10:20:44;;;;;;;49.97;26.87;;;;;;;8.95;85.88;100220.33;126224;1098;26500;-64
2020/12/23 10:23:14;;;;;;;47.35;24.30;;;;;;;8.98;85.74;100211.02;125993;1093;23468;-65
2020/12/23 10:26:17;;;;;;;54.33;28.90;;;;;;;9.01;85.46;100210.09;120352;1148;23317;-62
2020/12/23 10:28:47;;;;;;;46.73;22.60;;;;;;;9.04;85.85;100205.61;120245;1148;22965;-63
2020/12/23 10:31:16;;;;;;;40.17;20.00;;;;;;;9.05;85.14;100196.77;120329;1150;22923;-63
2020/12/23 10:33:46;;;;;;;45.95;25.95;;;;;;;9.08;85.45;100192.28;120268;1150;22868;-62
2020/12/23 10:36:16;;;;;;;37.57;17.60;;;;;;;9.10;85.38;100178.66;120412;1150;22941;-62
2020/12/23 10:38:46;;;;;;;26.00;12.93;;;;;;;9.13;85.44;100172.13;120274;1149;22917;-64
2020/12/23 10:41:19;;;;;;;35.83;15.58;;;;;;;9.15;85.33;100166.86;120322;1149;24538;-62
2020/12/23 10:43:48;;;;;;;33.37;16.53;;;;;;;9.14;84.91;100165.34;120192;1150;22916;-62
2020/12/23 10:46:17;;;;;;;26.43;14.17;;;;;;;9.13;85.38;100170.13;120348;1150;23001;-63
2020/12/23 10:48:46;;;;;;;28.65;13.55;;;;;;;9.15;85.62;100170.42;120156;1150;22911;-63
2020/12/23 10:51:16;;;;;;;23.43;11.67;;;;;;;9.15;85.28;100158.51;120304;1151;22883;-62
2020/12/23 10:53:45;;;;;;;26.23;12.47;;;;;;;9.15;85.10;100164.86;120406;1149;23080;-62
2020/12/23 10:56:14;;;;;;;22.60;10.30;;;;;;;9.19;85.49;100164.67;120136;1150;22912;-63
2020/12/23 10:58:44;;;;;;;20.67;9.47;;;;;;;9.22;84.95;100160.96;120292;1150;22945;-62
2020/12/23 11:01:18;;;;;;;22.40;10.10;;;;;;;9.22;85.80;100156.17;120191;1149;22909;-63
2020/12/23 11:03:47;;;;;;;22.70;10.93;;;;;;;9.23;86.06;100157.70;120162;1150;22970;-63
2020/12/23 11:06:17;;;;;;;21.33;10.13;;;;;;;9.25;84.90;100163.56;120019;1150;22954;-62
2020/12/23 11:08:47;;;;;;;24.83;10.03;;;;;;;9.28;85.41;100151.49;120116;1150;23021;-62
2020/12/23 11:11:16;;;;;;;21.23;10.27;;;;;;;9.31;85.01;100142.17;119872;1150;22952;-63
2020/12/23 11:13:46;;;;;;;25.43;12.33;;;;;;;9.36;85.48;100147.11;120191;1149;22896;-63
2020/12/23 11:16:16;;;;;;;29.00;12.77;;;;;;;9.37;85.25;100140.28;119855;1150;27241;-62
2020/12/23 11:18:46;;;;;;;26.10;12.05;;;;;;;9.39;85.44;100146.18;120057;1149;22946;-63
2020/12/23 11:21:16;;;;;;;25.55;11.70;;;;;;;9.39;85.38;100143.39;120000;1150;26507;-63
2020/12/23 11:23:45;;;;;;;23.85;11.05;;;;;;;9.42;85.38;100136.08;119991;1150;22938;-63
2020/12/23 11:26:19;;;;;;;28.90;12.30;;;;;;;9.45;85.76;100129.58;120012;1149;22993;-63
2020/12/23 11:28:48;;;;;;;22.25;10.30;;;;;;;9.49;85.33;100132.95;120164;1150;22931;-62
2020/12/23 11:31:18;;;;;;;21.87;10.13;;;;;;;9.49;84.99;100139.30;120120;1149;23028;-62
2020/12/23 11:33:47;;;;;;;24.47;10.97;;;;;;;9.46;85.18;100139.45;120499;1149;26459;-62